AEE112 EDDK-EDDL
Flight info
| Callsign | AEE112 |
|---|---|
| Flight time | N/A |
| Altitude | 4000 |
| Route | OLPEX DCT 505400N0065930E 505948N0065330E 510830N0064712E |
| Aircraft | A20N/M-SDE2E3FGHIRWXY/LB1 |
Departure
| Time | 2026-04-26 17:15 |
|---|---|
| Airport | Cologne Bonn Airport (EDDK) |
Arrival
| Time | N/A |
|---|---|
| Airport | Düsseldorf Airport (EDDL) |
| Time | Latitude | Longitude | Altitude | Speed | Heading |
|---|---|---|---|---|---|
| 2026-04-26 16:35 | 50.86657 | 7.13551 | 252 ft | 0 kts | 338° |
| 2026-04-26 16:56 | 50.86643 | 7.13560 | 253 ft | 7 kts | 338° |
| 2026-04-26 16:57 | 50.86611 | 7.13581 | 256 ft | 0 kts | 338° |
| 2026-04-26 16:57 | 50.86552 | 7.13540 | 254 ft | 0 kts | 59° |
| 2026-04-26 17:00 | 50.86556 | 7.13552 | 254 ft | 4 kts | 59° |
| 2026-04-26 17:00 | 50.86621 | 7.13743 | 257 ft | 15 kts | 64° |
| 2026-04-26 17:00 | 50.86670 | 7.13912 | 259 ft | 19 kts | 66° |
| 2026-04-26 17:01 | 50.86718 | 7.14095 | 264 ft | 18 kts | 86° |
| 2026-04-26 17:01 | 50.86700 | 7.14182 | 264 ft | 2 kts | 137° |
| 2026-04-26 17:01 | 50.86678 | 7.14213 | 263 ft | 0 kts | 137° |
| 2026-04-26 17:03 | 50.86668 | 7.14229 | 263 ft | 7 kts | 137° |
| 2026-04-26 17:03 | 50.86563 | 7.14380 | 266 ft | 22 kts | 138° |
| 2026-04-26 17:04 | 50.86482 | 7.14496 | 268 ft | 24 kts | 137° |
| 2026-04-26 17:04 | 50.86363 | 7.14674 | 273 ft | 24 kts | 136° |
| 2026-04-26 17:04 | 50.86241 | 7.14860 | 277 ft | 24 kts | 137° |
| 2026-04-26 17:04 | 50.86112 | 7.15041 | 279 ft | 25 kts | 139° |
| 2026-04-26 17:05 | 50.85976 | 7.15230 | 282 ft | 26 kts | 139° |
| 2026-04-26 17:05 | 50.85839 | 7.15422 | 287 ft | 26 kts | 138° |
| 2026-04-26 17:05 | 50.85708 | 7.15609 | 294 ft | 26 kts | 137° |
| 2026-04-26 17:05 | 50.85577 | 7.15806 | 299 ft | 26 kts | 136° |
| 2026-04-26 17:06 | 50.85505 | 7.15915 | 298 ft | 0 kts | 136° |
| 2026-04-26 17:06 | 50.85502 | 7.15921 | 298 ft | 2 kts | 131° |
| 2026-04-26 17:06 | 50.85499 | 7.15927 | 297 ft | 0 kts | 128° |
| 2026-04-26 17:07 | 50.85495 | 7.15935 | 297 ft | 4 kts | 129° |
| 2026-04-26 17:08 | 50.85454 | 7.16000 | 301 ft | 13 kts | 137° |
| 2026-04-26 17:08 | 50.85368 | 7.16134 | 305 ft | 20 kts | 125° |
| 2026-04-26 17:08 | 50.85345 | 7.16304 | 309 ft | 10 kts | 72° |
| 2026-04-26 17:08 | 50.85378 | 7.16435 | 312 ft | 15 kts | 69° |
| 2026-04-26 17:09 | 50.85388 | 7.16456 | 310 ft | 0 kts | 40° |
| 2026-04-26 17:09 | 50.85389 | 7.16458 | 310 ft | 2 kts | 40° |
| 2026-04-26 17:09 | 50.85394 | 7.16464 | 311 ft | 0 kts | 40° |
| 2026-04-26 17:13 | 50.85410 | 7.16482 | 311 ft | 5 kts | 29° |
| 2026-04-26 17:14 | 50.85457 | 7.16504 | 314 ft | 10 kts | 10° |
| 2026-04-26 17:14 | 50.85553 | 7.16531 | 310 ft | 8 kts | 347° |
| 2026-04-26 17:14 | 50.85814 | 7.16142 | 303 ft | 97 kts | 317° |
| 2026-04-26 17:15 | 50.87451 | 7.13798 | 640 ft | 200 kts | 318° |
| 2026-04-26 17:15 | 50.88564 | 7.12253 | 1072 ft | 232 kts | 319° |
| 2026-04-26 17:15 | 50.89840 | 7.10452 | 1694 ft | 257 kts | 319° |
| 2026-04-26 17:16 | 50.91198 | 7.08456 | 2416 ft | 274 kts | 317° |
| 2026-04-26 17:16 | 50.91940 | 7.05788 | 3440 ft | 270 kts | 258° |
| 2026-04-26 17:16 | 50.91247 | 7.03287 | 4370 ft | 231 kts | 241° |
| 2026-04-26 17:16 | 50.90491 | 7.01113 | 4748 ft | 235 kts | 244° |
| 2026-04-26 17:17 | 50.89704 | 6.98637 | 4948 ft | 263 kts | 253° |
| 2026-04-26 17:17 | 50.89521 | 6.95813 | 4999 ft | 262 kts | 280° |
| 2026-04-26 17:17 | 50.90208 | 6.93164 | 4999 ft | 261 kts | 308° |
| 2026-04-26 17:17 | 50.91583 | 6.91394 | 5001 ft | 260 kts | 336° |
| 2026-04-26 17:18 | 50.93359 | 6.90875 | 5008 ft | 263 kts | 1° |